• Join FlightAware (Why Join?)
  • Login
  • US Flag 
 
08:56PM EST


 

Airport Tracker/Info


-or-


 

Live Flight TrackerFlight Track Log ✈ BJS542 ✈ 02-May-2013 ✈ KBCT - MBPV / PLS

Flight Track Log - Related Links

Times and Time Zones

All times are in EDT time to prevent confusion due to time zone crossing. See the BJS542 flight status page for this flight to view local times or setup timezone preferences in your user account.

Time Position Orientation Groundspeed Altitude Reporting Facility
EDT Latitude Longitude Course Direction KTS MPH feet Rate Location/Type
11:30AM 26.4422 -80.0564 156° South 225 259 3,300  Level Miami Center
11:31AM 26.4817 -79.9786 60° Northeast 250 288 6,500 1,800 Climbing Miami Center
11:32AM 26.5100 -79.9142 64° Northeast 284 327 7,000 300 Climbing Miami Center
11:33AM 26.5514 -79.8272 62° Northeast 306 352 7,100  Climbing Miami Center
11:34AM 26.5592 -79.7531 83° East 262 302 7,000 -60 Descending Miami Center
11:35AM 26.4729 -79.6375 149° Southeast  Level FlightAware Approximate
11:35AM 26.5233 -79.6686 115° Southeast 262 302 7,000  Level Miami Center
11:36AM 26.3470 -79.5902 156° South  Level FlightAware Approximate
11:36AM 26.4975 -79.6006 113° Southeast 272 313 7,000  Level Miami Center
11:37AM 26.4658 -79.5117 112° Southeast 272 313 8,500 1,800 Climbing Miami Center
11:38AM 26.4253 -79.4342 120° Southeast 300 345 10,600 2,460 Climbing Miami Center
11:39AM 26.3728 -79.3286 119° Southeast 333 383 13,500 2,700 Climbing Miami Center
11:40AM 26.3264 -79.2350 119° Southeast 349 402 16,100 2,700 Climbing Miami Center
11:41AM 26.2778 -79.1367 119° Southeast 356 410 18,900 2,760 Climbing Miami Center
11:42AM 26.2292 -79.0408 119° Southeast 356 410 21,700 2,640 Climbing Miami Center
11:43AM 26.1803 -78.9450 120° Southeast 356 410 24,200 1,680 Climbing Miami Center
11:44AM 26.1211 -78.8375 121° Southeast 373 429 25,100 900 Climbing Miami Center
11:45AM 26.0581 -78.7139 120° Southeast 416 479 26,000 1,500 Climbing Miami Center
11:46AM 25.9908 -78.5833 120° Southeast 462 532 28,200 1,800 Climbing Miami Center
11:47AM 25.9375 -78.4764 119° Southeast 477 549 29,700 1,680 Climbing Miami Center
11:48AM 25.8639 -78.3414 121° Southeast 477 549 31,600 2,040 Climbing Miami Center
11:49AM 25.7961 -78.2067 119° Southeast 483 556 33,800 2,340 Climbing Miami Center
11:50AM 25.7303 -78.0836 121° Southeast 483 556 36,300 1,560 Climbing Miami Center
11:51AM 25.6625 -77.9539 120° Southeast 483 556 37,000 600 Climbing Miami Center
11:52AM 25.5903 -77.8150 120° Southeast 498 573 37,500 720 Climbing Miami Center
11:53AM 25.5181 -77.6739 120° Southeast 516 594 38,500 1,080 Climbing Miami Center
11:54AM 25.4414 -77.5331 121° Southeast 528 608 39,700 1,200 Climbing Miami Center
11:55AM 25.3583 -77.3786 121° Southeast 528 608 41,000 600 Climbing Miami Center
11:56AM 25.2625 -77.2586 131° Southeast 528 608 41,000  Level Miami Center
11:57AM 25.1647 -77.1297 130° Southeast 534 615 41,000  Level Miami Center
11:58AM 25.0686 -77.0056 131° Southeast 534 615 41,000  Level Miami Center
11:59AM 24.9706 -76.8839 132° Southeast 534 615 41,000  Level Miami Center
12:00PM 24.8744 -76.7603 131° Southeast 534 615 41,000  Level Miami Center
12:01PM 24.7781 -76.6392 131° Southeast 534 615 41,000  Level Miami Center
12:02PM 24.6817 -76.5158 131° Southeast 534 615 41,000  Level Miami Center
12:03PM 24.5853 -76.3972 132° Southeast 534 615 41,000  Level Miami Center
12:04PM 24.5011 -76.2878 130° Southeast 534 615 41,000  Level Miami Center
12:05PM 24.4025 -76.1650 131° Southeast 534 615 41,000  Level Miami Center
12:06PM 24.3058 -76.0425 131° Southeast 534 615 41,000  Level Miami Center
12:07PM 24.2067 -75.9178 131° Southeast 534 615 41,000  Level Miami Center
12:08PM 24.1097 -75.7933 130° Southeast 534 615 41,000  Level Miami Center
12:09PM 24.0086 -75.6669 131° Southeast 534 615 41,000  Level Miami Center
12:10PM 23.9008 -75.5314 131° Southeast 539 620 41,000  Level Miami Center
12:11PM 23.7992 -75.4053 131° Southeast 539 620 41,000  Level Miami Center
12:12PM 23.6956 -75.2772 131° Southeast 545 627 41,000  Level Miami Center
12:13PM 23.5919 -75.1561 133° Southeast 545 627 41,000  Level Miami Center
12:14PM 23.4922 -75.0328 131° Southeast 550 633 41,000  Level Miami Center
12:15PM 23.3903 -74.9075 132° Southeast 550 633 41,000  Level Miami Center
12:16PM 23.2883 -74.7803 131° Southeast 550 633 41,000 -660 Level Miami Center
12:17PM 23.1864 -74.6600 133° Southeast 550 633 39,700 -1,320 Descending Miami Center
12:18PM 23.0883 -74.5397 132° Southeast 545 627 38,400 -1,320 Descending Miami Center
12:19PM 22.9925 -74.4239 132° Southeast 528 608 37,100 -1,620 Descending Miami Center
12:20PM 22.9008 -74.3153 132° Southeast 507 583 35,200 -2,040 Descending Miami Center
12:21PM 22.8092 -74.2067 132° Southeast 488 562 33,100 -2,220 Descending Miami Center
12:22PM 22.7217 -74.0958 131° Southeast 488 562 30,800 -2,400 Descending Miami Center
12:23PM 22.6319 -73.9875 132° Southeast 488 562 28,400 -2,400 Descending Miami Center
12:24PM 22.5422 -73.8839 133° Southeast 483 556 26,100 -2,100 Descending Miami Center
12:25PM 22.4672 -73.7911 131° Southeast 473 544 24,300 -2,040 Descending Miami Center
12:26PM 22.3836 -73.6919 132° Southeast 461 531 22,100 -2,220 Descending Miami Center
12:27PM 22.3003 -73.5953 133° Southeast 456 525 19,900 -2,220 Descending Miami Center
12:28PM 22.2228 -73.4986 131° Southeast 438 504 17,700 -2,100 Descending Miami Center
12:29PM 22.1500 -73.4108 132° Southeast 418 481 15,800 -1,920 Descending Miami Center
12:30PM 22.0792 -73.3275 133° Southeast 392 451 13,900 -1,800 Descending Miami Center
12:31PM 22.0103 -73.2464 132° Southeast 373 429 12,200 -1,740 Descending Miami Center
12:32PM 21.9417 -73.1700 134° Southeast 360 414 10,500 -1,740 Descending Miami Center
12:33PM 21.8836 -73.0933 129° Southeast 349 402 8,800 -1,680 Descending Miami Center
12:34PM 21.8233 -73.0192 131° Southeast 342 394 7,200 -1,620 Descending Miami Center
12:36PM 21.8015 -72.8557 96° East  Level FlightAware Approximate
12:43PM 21.7667 -72.2667 90° East  Level FlightAware Approximate
12:44PM 21.7736 -72.2659 90° East  Level Estimated
12:45PM 21.7667 -72.2667 90° East  Level FlightAware Approximate
12:46PM 21.7736 -72.2659 90° East  Level Estimated
12:47PM 21.7667 -72.2667 90° East  Level FlightAware Approximate
12:48PM 21.7736 -72.2659 90° East  Level Estimated
12:49PM 21.7667 -72.2667 90° East  Level FlightAware Approximate
12:50PM 21.7736 -72.2659 90° East  Level Estimated
12:51PM 21.7667 -72.2667 90° East  Level FlightAware Approximate
12:52PM 21.7736 -72.2659 90° East  Level Estimated
12:53PM 21.7667 -72.2667 90° East  Level FlightAware Approximate
12:54PM 21.7736 -72.2659 90° East  Level Estimated
12:55PM 21.7667 -72.2667 90° East  Level FlightAware Approximate
12:56PM 21.7736 -72.2659 90° East  Level Estimated